ポンペイ島 の空港の天気 - METARとTAF

ポンペイ国際空港 ( PTPN / PNI ) - ミクロネシア連邦 ポンペイ島
飛行場実況気象(Metar)
観測時間05/30 15:50 +11 (05/30 04:50 UTC)
風向・風速東北東 4m/s
視程10km以上
天気現象
全天の4割程度の雲 雲底高度 550m
全天の8割程度の雲 雲底高度 3960m
全天を覆う雲 雲底高度 9140m
気温31℃
湿度70%
気圧1012hPa
METARPTPN 300450Z 07008KT 15SM SCT018TCU BKN130 OVC300 31/25 A2987 RMK TCU ALQDS LAST
過去の天気等 Google飛行場航空写真 Wunderground天気予報

過去48時間のMETAR

飛行場予報(TAF)
発表時間: 5/30 16:20 +11 (5/30 05:20 UTC)
予報対象時間: 30日17時 +11 ~ 31日17時 +11
風向・風速東 5m/s
視程10km以上
天気現象周辺でしゅう雨
全天の4割程度の雲 雲底高度 550m
全天の8割程度の雲 雲底高度 3660m
PTPN 300520Z 3006/3106 09010KT P6SM VCSH SCT018 BKN120